sensor_id;sensor_type;location;lat;lon;timestamp;pressure;altitude;pressure_sealevel;temperature;humidity
68456;BME280;55437;55.046;38.838;2023-05-17T00:02:17;100645.03;;;10.05;67.48
68456;BME280;55437;55.046;38.838;2023-05-17T00:04:43;100642.53;;;10.02;67.33
68456;BME280;55437;55.046;38.838;2023-05-17T00:07:11;100646.84;;;10.02;67.78
68456;BME280;55437;55.046;38.838;2023-05-17T00:09:37;100651.16;;;9.98;67.88
68456;BME280;55437;55.046;38.838;2023-05-17T00:12:04;100638.34;;;9.97;67.76
68456;BME280;55437;55.046;38.838;2023-05-17T00:14:29;100649.50;;;9.96;67.59
68456;BME280;55437;55.046;38.838;2023-05-17T00:16:55;100649.53;;;9.93;67.92
68456;BME280;55437;55.046;38.838;2023-05-17T00:19:21;100650.41;;;9.90;67.96
68456;BME280;55437;55.046;38.838;2023-05-17T00:21:46;100647.09;;;9.85;67.87
68456;BME280;55437;55.046;38.838;2023-05-17T00:24:12;100642.03;;;9.81;68.47
68456;BME280;55437;55.046;38.838;2023-05-17T00:26:38;100649.72;;;9.82;68.26
68456;BME280;55437;55.046;38.838;2023-05-17T00:29:04;100648.03;;;9.80;68.21
68456;BME280;55437;55.046;38.838;2023-05-17T00:31:29;100650.66;;;9.77;67.89
68456;BME280;55437;55.046;38.838;2023-05-17T00:33:55;100649.00;;;9.72;67.88
68456;BME280;55437;55.046;38.838;2023-05-17T00:36:21;100653.41;;;9.66;68.17
68456;BME280;55437;55.046;38.838;2023-05-17T00:38:47;100650.94;;;9.58;68.51
68456;BME280;55437;55.046;38.838;2023-05-17T00:41:12;100650.13;;;9.55;68.50
68456;BME280;55437;55.046;38.838;2023-05-17T00:43:38;100658.72;;;9.54;68.44
68456;BME280;55437;55.046;38.838;2023-05-17T00:46:04;100649.25;;;9.56;68.51
68456;BME280;55437;55.046;38.838;2023-05-17T00:48:30;100650.97;;;9.55;68.41
68456;BME280;55437;55.046;38.838;2023-05-17T00:50:57;100652.66;;;9.58;68.21
68456;BME280;55437;55.046;38.838;2023-05-17T00:53:24;100650.97;;;9.55;68.18
68456;BME280;55437;55.046;38.838;2023-05-17T00:55:50;100656.97;;;9.54;68.09
68456;BME280;55437;55.046;38.838;2023-05-17T00:58:18;100648.47;;;9.54;68.35
68456;BME280;55437;55.046;38.838;2023-05-17T01:00:45;100660.38;;;9.55;68.26
68456;BME280;55437;55.046;38.838;2023-05-17T01:03:11;100666.41;;;9.54;68.25
68456;BME280;55437;55.046;38.838;2023-05-17T01:05:37;100658.78;;;9.48;68.32
68456;BME280;55437;55.046;38.838;2023-05-17T01:08:03;100658.81;;;9.45;68.37
68456;BME280;55437;55.046;38.838;2023-05-17T01:13:26;100670.81;;;9.43;68.25
68456;BME280;55437;55.046;38.838;2023-05-17T01:16:29;100674.22;;;9.43;68.22
68456;BME280;55437;55.046;38.838;2023-05-17T01:22:13;100667.38;;;9.42;68.46
68456;BME280;55437;55.046;38.838;2023-05-17T01:24:59;100669.88;;;9.50;68.34
68456;BME280;55437;55.046;38.838;2023-05-17T01:27:27;100655.97;;;9.64;67.99
68456;BME280;55437;55.046;38.838;2023-05-17T01:29:55;100667.63;;;9.85;67.52
68456;BME280;55437;55.046;38.838;2023-05-17T01:32:23;100666.44;;;10.04;66.96
68456;BME280;55437;55.046;38.838;2023-05-17T01:34:50;100678.88;;;10.30;66.49
68456;BME280;55437;55.046;38.838;2023-05-17T01:37:16;100675.00;;;10.56;66.05
68456;BME280;55437;55.046;38.838;2023-05-17T01:39:42;100670.25;;;10.79;65.58
68456;BME280;55437;55.046;38.838;2023-05-17T01:42:22;100679.78;;;11.17;64.70
68456;BME280;55437;55.046;38.838;2023-05-17T01:50:02;100679.47;;;11.69;63.06
68456;BME280;55437;55.046;38.838;2023-05-17T01:52:37;100682.53;;;11.86;62.74
68456;BME280;55437;55.046;38.838;2023-05-17T01:57:42;100677.84;;;12.04;61.84
68456;BME280;55437;55.046;38.838;2023-05-17T02:00:10;100689.25;;;12.27;61.75
68456;BME280;55437;55.046;38.838;2023-05-17T02:02:41;100680.75;;;12.56;60.65
68456;BME280;55437;55.046;38.838;2023-05-17T02:05:07;100683.13;;;12.95;59.77
68456;BME280;55437;55.046;38.838;2023-05-17T02:07:33;100681.94;;;13.38;58.99
68456;BME280;55437;55.046;38.838;2023-05-17T02:09:59;100677.88;;;13.85;57.85
68456;BME280;55437;55.046;38.838;2023-05-17T02:12:24;100677.44;;;14.25;57.03
68456;BME280;55437;55.046;38.838;2023-05-17T02:14:50;100677.13;;;14.59;56.49
68456;BME280;55437;55.046;38.838;2023-05-17T02:17:16;100689.25;;;15.05;55.37
68456;BME280;55437;55.046;38.838;2023-05-17T02:19:42;100681.97;;;15.38;54.61
68456;BME280;55437;55.046;38.838;2023-05-17T02:22:08;100688.38;;;15.95;53.24
68456;BME280;55437;55.046;38.838;2023-05-17T02:24:34;100691.81;;;16.37;52.15
68456;BME280;55437;55.046;38.838;2023-05-17T02:26:59;100693.16;;;16.86;51.08
68456;BME280;55437;55.046;38.838;2023-05-17T02:32:55;100686.84;;;18.20;48.06
68456;BME280;55437;55.046;38.838;2023-05-17T02:35:21;100694.06;;;18.48;47.21
68456;BME280;55437;55.046;38.838;2023-05-17T02:37:49;100692.91;;;18.88;46.31
68456;BME280;55437;55.046;38.838;2023-05-17T02:40:15;100697.59;;;19.30;45.35
68456;BME280;55437;55.046;38.838;2023-05-17T02:42:41;100696.06;;;19.73;44.45
68456;BME280;55437;55.046;38.838;2023-05-17T02:45:07;100701.34;;;20.18;43.64
68456;BME280;55437;55.046;38.838;2023-05-17T02:47:33;100698.78;;;20.62;42.85
68456;BME280;55437;55.046;38.838;2023-05-17T02:49:59;100705.78;;;20.90;42.11
68456;BME280;55437;55.046;38.838;2023-05-17T02:52:26;100704.28;;;21.14;41.47
68456;BME280;55437;55.046;38.838;2023-05-17T02:54:51;100694.97;;;21.24;40.95
68456;BME280;55437;55.046;38.838;2023-05-17T02:57:17;100704.00;;;21.33;40.55
68456;BME280;55437;55.046;38.838;2023-05-17T02:59:43;100698.94;;;21.44;40.34
68456;BME280;55437;55.046;38.838;2023-05-17T03:02:09;100701.28;;;21.48;40.03
68456;BME280;55437;55.046;38.838;2023-05-17T03:04:34;100710.34;;;21.70;39.91
68456;BME280;55437;55.046;38.838;2023-05-17T03:07:01;100708.53;;;22.11;39.22
68456;BME280;55437;55.046;38.838;2023-05-17T03:09:27;100704.50;;;22.33;39.07
68456;BME280;55437;55.046;38.838;2023-05-17T03:11:56;100700.69;;;21.84;39.33
68456;BME280;55437;55.046;38.838;2023-05-17T03:14:25;100704.47;;;21.11;40.51
68456;BME280;55437;55.046;38.838;2023-05-17T03:16:52;100704.31;;;20.41;41.85
68456;BME280;55437;55.046;38.838;2023-05-17T03:19:18;100703.66;;;19.78;42.91
68456;BME280;55437;55.046;38.838;2023-05-17T03:21:44;100703.78;;;19.28;44.08
68456;BME280;55437;55.046;38.838;2023-05-17T03:24:11;100706.91;;;19.19;45.02
68456;BME280;55437;55.046;38.838;2023-05-17T03:26:36;100704.13;;;19.69;44.64
68456;BME280;55437;55.046;38.838;2023-05-17T03:29:03;100717.28;;;20.43;43.55
68456;BME280;55437;55.046;38.838;2023-05-17T03:31:30;100705.88;;;21.02;42.66
68456;BME280;55437;55.046;38.838;2023-05-17T03:33:56;100702.38;;;21.59;41.42
68456;BME280;55437;55.046;38.838;2023-05-17T03:36:22;100710.88;;;21.75;41.01
68456;BME280;55437;55.046;38.838;2023-05-17T03:38:47;100711.03;;;21.59;41.65
68456;BME280;55437;55.046;38.838;2023-05-17T03:41:14;100709.25;;;21.33;41.16
68456;BME280;55437;55.046;38.838;2023-05-17T03:43:40;100716.41;;;21.15;41.18
68456;BME280;55437;55.046;38.838;2023-05-17T03:46:07;100715.38;;;21.17;41.05
68456;BME280;55437;55.046;38.838;2023-05-17T03:48:34;100724.06;;;21.18;40.61
68456;BME280;55437;55.046;38.838;2023-05-17T03:51:00;100720.06;;;20.98;41.07
68456;BME280;55437;55.046;38.838;2023-05-17T03:53:26;100720.31;;;20.79;41.32
68456;BME280;55437;55.046;38.838;2023-05-17T03:55:52;100717.59;;;20.53;42.19
68456;BME280;55437;55.046;38.838;2023-05-17T03:58:18;100718.50;;;20.37;42.17
68456;BME280;55437;55.046;38.838;2023-05-17T04:00:44;100723.94;;;20.33;41.99
68456;BME280;55437;55.046;38.838;2023-05-17T04:03:14;100726.41;;;20.20;42.27
68456;BME280;55437;55.046;38.838;2023-05-17T04:05:40;100717.56;;;19.93;42.56
68456;BME280;55437;55.046;38.838;2023-05-17T04:08:07;100715.91;;;19.76;42.94
68456;BME280;55437;55.046;38.838;2023-05-17T04:10:32;100719.75;;;19.85;43.13
68456;BME280;55437;55.046;38.838;2023-05-17T04:12:58;100722.69;;;19.94;43.01
68456;BME280;55437;55.046;38.838;2023-05-17T04:15:24;100725.88;;;19.99;43.14
68456;BME280;55437;55.046;38.838;2023-05-17T04:17:50;100718.91;;;20.00;42.88
68456;BME280;55437;55.046;38.838;2023-05-17T04:20:16;100723.66;;;20.23;42.67
68456;BME280;55437;55.046;38.838;2023-05-17T04:22:42;100726.41;;;20.36;42.15
68456;BME280;55437;55.046;38.838;2023-05-17T04:25:10;100732.44;;;20.52;41.77
68456;BME280;55437;55.046;38.838;2023-05-17T04:27:36;100735.75;;;20.54;41.84
68456;BME280;55437;55.046;38.838;2023-05-17T04:30:05;100737.38;;;20.71;41.52
68456;BME280;55437;55.046;38.838;2023-05-17T04:32:31;100733.66;;;21.03;41.24
68456;BME280;55437;55.046;38.838;2023-05-17T04:34:59;100731.34;;;21.27;40.77
68456;BME280;55437;55.046;38.838;2023-05-17T04:37:25;100730.88;;;21.49;40.66
68456;BME280;55437;55.046;38.838;2023-05-17T04:39:55;100736.56;;;21.82;39.73
68456;BME280;55437;55.046;38.838;2023-05-17T04:42:21;100734.19;;;22.19;38.66
68456;BME280;55437;55.046;38.838;2023-05-17T04:44:52;100738.44;;;22.59;38.10
68456;BME280;55437;55.046;38.838;2023-05-17T04:47:18;100738.06;;;23.04;36.63
68456;BME280;55437;55.046;38.838;2023-05-17T04:49:44;100741.75;;;23.38;36.08
68456;BME280;55437;55.046;38.838;2023-05-17T04:52:09;100743.41;;;23.64;35.81
68456;BME280;55437;55.046;38.838;2023-05-17T04:54:35;100746.75;;;24.37;34.74
68456;BME280;55437;55.046;38.838;2023-05-17T04:57:01;100747.09;;;24.44;34.15
68456;BME280;55437;55.046;38.838;2023-05-17T04:59:49;100744.38;;;24.57;33.83
68456;BME280;55437;55.046;38.838;2023-05-17T05:02:33;100748.06;;;24.54;33.61
68456;BME280;55437;55.046;38.838;2023-05-17T05:05:00;100738.94;;;24.71;32.87
68456;BME280;55437;55.046;38.838;2023-05-17T05:07:26;100750.31;;;24.94;32.52
68456;BME280;55437;55.046;38.838;2023-05-17T05:09:53;100740.88;;;25.25;32.16
68456;BME280;55437;55.046;38.838;2023-05-17T05:12:20;100745.03;;;25.61;31.77
68456;BME280;55437;55.046;38.838;2023-05-17T05:14:47;100743.53;;;25.90;30.97
68456;BME280;55437;55.046;38.838;2023-05-17T05:17:12;100740.31;;;26.18;30.56
68456;BME280;55437;55.046;38.838;2023-05-17T05:19:40;100735.16;;;26.17;30.59
68456;BME280;55437;55.046;38.838;2023-05-17T05:22:06;100741.13;;;26.19;30.40
68456;BME280;55437;55.046;38.838;2023-05-17T05:24:33;100742.56;;;26.65;30.38
68456;BME280;55437;55.046;38.838;2023-05-17T05:26:59;100749.28;;;26.99;29.64
68456;BME280;55437;55.046;38.838;2023-05-17T05:29:25;100760.75;;;27.59;29.17
68456;BME280;55437;55.046;38.838;2023-05-17T05:31:50;100752.97;;;27.57;28.67
68456;BME280;55437;55.046;38.838;2023-05-17T05:37:01;100745.41;;;27.43;28.86
68456;BME280;55437;55.046;38.838;2023-05-17T05:39:26;100751.84;;;27.50;28.68
68456;BME280;55437;55.046;38.838;2023-05-17T05:41:52;100757.13;;;27.50;28.29
68456;BME280;55437;55.046;38.838;2023-05-17T05:44:18;100751.81;;;27.41;28.38
68456;BME280;55437;55.046;38.838;2023-05-17T05:46:44;100756.50;;;27.87;27.58
68456;BME280;55437;55.046;38.838;2023-05-17T05:49:10;100759.47;;;28.22;27.23
68456;BME280;55437;55.046;38.838;2023-05-17T05:51:36;100748.84;;;28.03;27.24
68456;BME280;55437;55.046;38.838;2023-05-17T05:54:02;100756.25;;;28.00;27.36
68456;BME280;55437;55.046;38.838;2023-05-17T05:56:28;100756.63;;;28.53;26.74
68456;BME280;55437;55.046;38.838;2023-05-17T05:58:55;100763.41;;;29.21;26.10
68456;BME280;55437;55.046;38.838;2023-05-17T06:01:20;100755.44;;;29.58;25.69
68456;BME280;55437;55.046;38.838;2023-05-17T06:03:46;100757.00;;;29.51;25.60
68456;BME280;55437;55.046;38.838;2023-05-17T06:06:12;100751.53;;;29.80;25.20
68456;BME280;55437;55.046;38.838;2023-05-17T06:11:46;100755.66;;;30.36;25.14
68456;BME280;55437;55.046;38.838;2023-05-17T06:14:12;100763.00;;;30.86;23.73
68456;BME280;55437;55.046;38.838;2023-05-17T06:16:37;100762.44;;;31.08;23.53
68456;BME280;55437;55.046;38.838;2023-05-17T06:19:03;100760.53;;;31.18;23.06
68456;BME280;55437;55.046;38.838;2023-05-17T06:21:29;100757.91;;;31.26;22.73
68456;BME280;55437;55.046;38.838;2023-05-17T06:23:56;100758.41;;;31.72;22.70
68456;BME280;55437;55.046;38.838;2023-05-17T06:26:22;100759.75;;;32.16;21.81
68456;BME280;55437;55.046;38.838;2023-05-17T06:28:47;100759.59;;;32.02;21.85
68456;BME280;55437;55.046;38.838;2023-05-17T06:31:13;100770.53;;;31.82;21.92
68456;BME280;55437;55.046;38.838;2023-05-17T06:33:39;100759.44;;;31.87;22.40
68456;BME280;55437;55.046;38.838;2023-05-17T06:36:05;100757.97;;;32.25;21.31
68456;BME280;55437;55.046;38.838;2023-05-17T06:38:31;100759.94;;;32.39;21.62
68456;BME280;55437;55.046;38.838;2023-05-17T06:40:57;100760.09;;;32.38;21.35
68456;BME280;55437;55.046;38.838;2023-05-17T06:43:23;100757.59;;;31.96;21.81
68456;BME280;55437;55.046;38.838;2023-05-17T06:45:49;100762.72;;;31.89;21.98
68456;BME280;55437;55.046;38.838;2023-05-17T06:48:15;100768.34;;;31.78;22.50
68456;BME280;55437;55.046;38.838;2023-05-17T06:50:41;100762.59;;;32.15;22.37
68456;BME280;55437;55.046;38.838;2023-05-17T06:53:07;100773.06;;;32.41;22.07
68456;BME280;55437;55.046;38.838;2023-05-17T06:55:33;100769.91;;;32.05;22.07
68456;BME280;55437;55.046;38.838;2023-05-17T06:57:58;100768.44;;;32.43;21.61
68456;BME280;55437;55.046;38.838;2023-05-17T07:00:24;100760.22;;;32.85;21.58
68456;BME280;55437;55.046;38.838;2023-05-17T07:02:50;100771.44;;;33.19;21.44
68456;BME280;55437;55.046;38.838;2023-05-17T07:05:16;100771.34;;;33.44;21.46
68456;BME280;55437;55.046;38.838;2023-05-17T07:08:01;100773.03;;;33.68;21.42
68456;BME280;55437;55.046;38.838;2023-05-17T07:10:26;100772.25;;;33.59;20.98
68456;BME280;55437;55.046;38.838;2023-05-17T07:12:52;100769.53;;;33.36;21.20
68456;BME280;55437;55.046;38.838;2023-05-17T07:15:18;100774.69;;;32.90;21.13
68456;BME280;55437;55.046;38.838;2023-05-17T07:17:44;100769.94;;;32.29;20.86
68456;BME280;55437;55.046;38.838;2023-05-17T07:20:10;100765.13;;;32.33;21.41
68456;BME280;55437;55.046;38.838;2023-05-17T07:22:55;100773.72;;;32.10;21.05
68456;BME280;55437;55.046;38.838;2023-05-17T07:25:39;100769.06;;;32.12;21.52
68456;BME280;55437;55.046;38.838;2023-05-17T07:28:26;100756.44;;;31.90;21.48
68456;BME280;55437;55.046;38.838;2023-05-17T07:30:51;100762.13;;;32.28;21.67
68456;BME280;55437;55.046;38.838;2023-05-17T07:33:17;100759.25;;;32.62;21.42
68456;BME280;55437;55.046;38.838;2023-05-17T07:36:01;100751.78;;;32.73;20.86
68456;BME280;55437;55.046;38.838;2023-05-17T07:38:28;100753.63;;;32.48;20.95
68456;BME280;55437;55.046;38.838;2023-05-17T07:40:54;100756.78;;;32.60;21.46
68456;BME280;55437;55.046;38.838;2023-05-17T07:43:19;100752.09;;;32.70;21.18
68456;BME280;55437;55.046;38.838;2023-05-17T07:45:45;100757.09;;;32.65;21.39
68456;BME280;55437;55.046;38.838;2023-05-17T07:48:11;100751.47;;;32.44;20.79
68456;BME280;55437;55.046;38.838;2023-05-17T07:50:37;100755.31;;;32.33;20.86
68456;BME280;55437;55.046;38.838;2023-05-17T07:53:03;100747.31;;;32.17;21.06
68456;BME280;55437;55.046;38.838;2023-05-17T07:55:28;100751.94;;;31.82;21.91
68456;BME280;55437;55.046;38.838;2023-05-17T07:57:54;100749.63;;;31.88;21.93
68456;BME280;55437;55.046;38.838;2023-05-17T08:00:21;100746.97;;;31.96;21.58
68456;BME280;55437;55.046;38.838;2023-05-17T08:02:48;100744.97;;;31.73;21.57
68456;BME280;55437;55.046;38.838;2023-05-17T08:05:13;100747.31;;;31.84;21.79
68456;BME280;55437;55.046;38.838;2023-05-17T08:07:39;100745.16;;;32.04;21.61
68456;BME280;55437;55.046;38.838;2023-05-17T08:10:05;100744.47;;;31.94;21.75
68456;BME280;55437;55.046;38.838;2023-05-17T08:12:31;100751.94;;;31.91;21.34
68456;BME280;55437;55.046;38.838;2023-05-17T08:14:57;100739.97;;;31.78;21.24
68456;BME280;55437;55.046;38.838;2023-05-17T08:17:22;100744.09;;;31.65;21.34
68456;BME280;55437;55.046;38.838;2023-05-17T08:19:48;100751.19;;;31.56;21.77
68456;BME280;55437;55.046;38.838;2023-05-17T08:22:14;100736.84;;;31.75;22.12
68456;BME280;55437;55.046;38.838;2023-05-17T08:24:42;100741.84;;;31.86;21.79
68456;BME280;55437;55.046;38.838;2023-05-17T08:27:10;100739.97;;;31.78;21.64
68456;BME280;55437;55.046;38.838;2023-05-17T08:29:38;100738.06;;;31.55;21.64
68456;BME280;55437;55.046;38.838;2023-05-17T08:32:04;100741.34;;;31.40;21.74
68456;BME280;55437;55.046;38.838;2023-05-17T08:34:30;100734.81;;;31.19;21.54
68456;BME280;55437;55.046;38.838;2023-05-17T08:36:56;100729.31;;;30.78;21.21
68456;BME280;55437;55.046;38.838;2023-05-17T08:39:22;100727.63;;;30.51;22.23
68456;BME280;55437;55.046;38.838;2023-05-17T08:41:47;100724.56;;;30.38;22.50
68456;BME280;55437;55.046;38.838;2023-05-17T08:44:32;100728.03;;;29.50;22.58
68456;BME280;55437;55.046;38.838;2023-05-17T08:47:17;100725.88;;;28.71;22.97
68456;BME280;55437;55.046;38.838;2023-05-17T08:49:54;100716.09;;;28.25;23.86
68456;BME280;55437;55.046;38.838;2023-05-17T08:52:29;100728.72;;;27.92;24.35
68456;BME280;55437;55.046;38.838;2023-05-17T08:54:56;100720.53;;;27.76;24.95
68456;BME280;55437;55.046;38.838;2023-05-17T08:57:23;100719.00;;;27.64;25.86
68456;BME280;55437;55.046;38.838;2023-05-17T09:02:59;100717.47;;;27.21;26.41
68456;BME280;55437;55.046;38.838;2023-05-17T09:05:28;100721.19;;;27.19;26.89
68456;BME280;55437;55.046;38.838;2023-05-17T09:07:54;100726.59;;;27.17;26.30
68456;BME280;55437;55.046;38.838;2023-05-17T09:10:39;100722.16;;;26.87;26.46
68456;BME280;55437;55.046;38.838;2023-05-17T09:13:25;100717.38;;;26.72;26.50
68456;BME280;55437;55.046;38.838;2023-05-17T09:16:12;100715.34;;;26.54;26.97
68456;BME280;55437;55.046;38.838;2023-05-17T09:18:58;100707.03;;;26.17;26.86
68456;BME280;55437;55.046;38.838;2023-05-17T09:21:45;100699.69;;;26.00;27.21
68456;BME280;55437;55.046;38.838;2023-05-17T09:24:18;100702.25;;;25.91;28.34
68456;BME280;55437;55.046;38.838;2023-05-17T09:26:44;100703.41;;;25.66;28.23
68456;BME280;55437;55.046;38.838;2023-05-17T09:29:12;100695.72;;;25.31;29.02
68456;BME280;55437;55.046;38.838;2023-05-17T09:31:39;100692.84;;;25.34;29.37
68456;BME280;55437;55.046;38.838;2023-05-17T09:34:05;100690.44;;;25.31;29.44
68456;BME280;55437;55.046;38.838;2023-05-17T09:36:34;100698.06;;;25.45;29.55
68456;BME280;55437;55.046;38.838;2023-05-17T09:39:04;100692.34;;;25.40;29.80
68456;BME280;55437;55.046;38.838;2023-05-17T09:41:31;100699.63;;;25.47;30.03
68456;BME280;55437;55.046;38.838;2023-05-17T09:44:02;100693.38;;;25.60;29.42
68456;BME280;55437;55.046;38.838;2023-05-17T09:46:32;100688.06;;;25.28;29.14
68456;BME280;55437;55.046;38.838;2023-05-17T09:49:02;100688.91;;;25.28;29.33
68456;BME280;55437;55.046;38.838;2023-05-17T09:51:31;100687.59;;;25.23;29.68
68456;BME280;55437;55.046;38.838;2023-05-17T09:53:57;100693.84;;;25.10;30.52
68456;BME280;55437;55.046;38.838;2023-05-17T09:56:27;100683.53;;;25.19;30.83
68456;BME280;55437;55.046;38.838;2023-05-17T09:58:53;100684.59;;;25.16;30.82
68456;BME280;55437;55.046;38.838;2023-05-17T10:01:20;100686.53;;;25.14;30.38
68456;BME280;55437;55.046;38.838;2023-05-17T10:03:47;100692.53;;;24.94;30.45
68456;BME280;55437;55.046;38.838;2023-05-17T10:06:15;100687.38;;;25.03;30.87
68456;BME280;55437;55.046;38.838;2023-05-17T10:08:45;100678.75;;;25.12;30.77
68456;BME280;55437;55.046;38.838;2023-05-17T10:11:15;100677.22;;;25.21;30.78
68456;BME280;55437;55.046;38.838;2023-05-17T10:13:46;100676.81;;;25.26;30.68
68456;BME280;55437;55.046;38.838;2023-05-17T10:16:14;100680.25;;;25.37;30.50
68456;BME280;55437;55.046;38.838;2023-05-17T10:18:40;100673.19;;;25.49;30.19
68456;BME280;55437;55.046;38.838;2023-05-17T10:21:07;100670.06;;;25.55;29.61
68456;BME280;55437;55.046;38.838;2023-05-17T10:23:33;100667.19;;;25.58;29.93
68456;BME280;55437;55.046;38.838;2023-05-17T10:26:00;100671.72;;;25.67;30.02
68456;BME280;55437;55.046;38.838;2023-05-17T10:28:28;100669.53;;;25.83;29.05
68456;BME280;55437;55.046;38.838;2023-05-17T10:31:13;100672.72;;;25.87;29.27
68456;BME280;55437;55.046;38.838;2023-05-17T10:33:39;100663.50;;;25.93;29.50
68456;BME280;55437;55.046;38.838;2023-05-17T10:36:07;100656.19;;;25.96;29.36
68456;BME280;55437;55.046;38.838;2023-05-17T10:38:33;100653.81;;;25.93;29.05
68456;BME280;55437;55.046;38.838;2023-05-17T10:41:01;100658.34;;;25.91;29.81
68456;BME280;55437;55.046;38.838;2023-05-17T10:43:28;100653.63;;;25.74;29.83
68456;BME280;55437;55.046;38.838;2023-05-17T10:45:56;100647.47;;;25.64;29.97
68456;BME280;55437;55.046;38.838;2023-05-17T10:48:22;100642.31;;;25.62;29.74
68456;BME280;55437;55.046;38.838;2023-05-17T10:50:52;100646.63;;;25.52;29.02
68456;BME280;55437;55.046;38.838;2023-05-17T10:53:18;100646.47;;;25.33;29.00
68456;BME280;55437;55.046;38.838;2023-05-17T10:55:44;100657.38;;;25.17;29.51
68456;BME280;55437;55.046;38.838;2023-05-17T10:58:18;100650.09;;;25.09;29.84
68456;BME280;55437;55.046;38.838;2023-05-17T11:00:48;100641.28;;;24.99;29.18
68456;BME280;55437;55.046;38.838;2023-05-17T11:03:18;100650.56;;;24.81;29.59
68456;BME280;55437;55.046;38.838;2023-05-17T11:06:16;100640.91;;;24.59;29.53
68456;BME280;55437;55.046;38.838;2023-05-17T11:09:21;100654.16;;;24.58;29.76
68456;BME280;55437;55.046;38.838;2023-05-17T11:12:06;100648.19;;;24.56;30.17
68456;BME280;55437;55.046;38.838;2023-05-17T11:14:45;100654.28;;;24.67;29.99
68456;BME280;55437;55.046;38.838;2023-05-17T11:17:15;100633.50;;;24.75;29.72
68456;BME280;55437;55.046;38.838;2023-05-17T11:20:03;100634.69;;;24.83;30.04
68456;BME280;55437;55.046;38.838;2023-05-17T11:22:36;100645.31;;;24.92;29.89
68456;BME280;55437;55.046;38.838;2023-05-17T11:25:06;100636.59;;;25.03;30.31
68456;BME280;55437;55.046;38.838;2023-05-17T11:27:47;100642.34;;;24.97;30.13
68456;BME280;55437;55.046;38.838;2023-05-17T11:30:27;100630.63;;;24.90;29.52
68456;BME280;55437;55.046;38.838;2023-05-17T11:32:57;100643.28;;;24.85;29.38
68456;BME280;55437;55.046;38.838;2023-05-17T11:35:40;100633.38;;;24.77;29.90
68456;BME280;55437;55.046;38.838;2023-05-17T11:38:18;100639.84;;;24.62;30.54
68456;BME280;55437;55.046;38.838;2023-05-17T11:40:45;100630.88;;;24.53;29.88
68456;BME280;55437;55.046;38.838;2023-05-17T11:43:16;100624.44;;;24.46;29.65
68456;BME280;55437;55.046;38.838;2023-05-17T11:45:56;100624.78;;;24.53;29.76
68456;BME280;55437;55.046;38.838;2023-05-17T11:48:41;100623.38;;;24.49;29.62
68456;BME280;55437;55.046;38.838;2023-05-17T11:51:08;100620.13;;;24.34;29.84
68456;BME280;55437;55.046;38.838;2023-05-17T11:53:39;100619.47;;;24.19;30.13
68456;BME280;55437;55.046;38.838;2023-05-17T11:56:05;100612.44;;;24.20;30.50
68456;BME280;55437;55.046;38.838;2023-05-17T11:58:33;100612.00;;;24.26;30.18
68456;BME280;55437;55.046;38.838;2023-05-17T12:00:59;100615.22;;;24.29;30.01
68456;BME280;55437;55.046;38.838;2023-05-17T12:03:27;100606.88;;;24.24;30.67
68456;BME280;55437;55.046;38.838;2023-05-17T12:06:23;100604.44;;;24.10;30.17
68456;BME280;55437;55.046;38.838;2023-05-17T12:08:50;100597.50;;;23.98;30.58
68456;BME280;55437;55.046;38.838;2023-05-17T12:11:17;100598.91;;;23.91;30.83
68456;BME280;55437;55.046;38.838;2023-05-17T12:13:44;100594.13;;;23.85;30.66
68456;BME280;55437;55.046;38.838;2023-05-17T12:16:14;100581.00;;;23.85;30.65
68456;BME280;55437;55.046;38.838;2023-05-17T12:18:50;100585.53;;;23.83;30.89
68456;BME280;55437;55.046;38.838;2023-05-17T12:21:17;100585.19;;;23.87;30.55
68456;BME280;55437;55.046;38.838;2023-05-17T12:23:44;100587.09;;;23.96;30.51
68456;BME280;55437;55.046;38.838;2023-05-17T12:26:12;100587.47;;;24.03;30.66
68456;BME280;55437;55.046;38.838;2023-05-17T12:28:41;100585.81;;;24.02;30.41
68456;BME280;55437;55.046;38.838;2023-05-17T12:31:19;100581.88;;;24.08;30.60
68456;BME280;55437;55.046;38.838;2023-05-17T12:33:45;100578.66;;;24.15;30.60
68456;BME280;55437;55.046;38.838;2023-05-17T12:36:12;100573.59;;;24.25;30.62
68456;BME280;55437;55.046;38.838;2023-05-17T12:38:43;100569.06;;;24.38;30.49
68456;BME280;55437;55.046;38.838;2023-05-17T12:41:10;100566.19;;;24.52;30.93
68456;BME280;55437;55.046;38.838;2023-05-17T12:43:38;100553.53;;;24.57;29.86
68456;BME280;55437;55.046;38.838;2023-05-17T12:46:12;100560.47;;;24.58;29.13
68456;BME280;55437;55.046;38.838;2023-05-17T12:48:40;100568.56;;;24.55;29.35
68456;BME280;55437;55.046;38.838;2023-05-17T12:53:40;100561.88;;;24.40;29.26
68456;BME280;55437;55.046;38.838;2023-05-17T12:56:07;100556.41;;;24.32;29.46
68456;BME280;55437;55.046;38.838;2023-05-17T12:58:33;100558.69;;;24.25;29.82
68456;BME280;55437;55.046;38.838;2023-05-17T13:01:02;100549.72;;;24.28;29.70
68456;BME280;55437;55.046;38.838;2023-05-17T13:03:32;100560.09;;;24.29;29.61
68456;BME280;55437;55.046;38.838;2023-05-17T13:06:05;100548.88;;;24.27;29.45
68456;BME280;55437;55.046;38.838;2023-05-17T13:08:33;100551.66;;;24.26;29.70
68456;BME280;55437;55.046;38.838;2023-05-17T13:11:12;100552.34;;;24.28;29.63
68456;BME280;55437;55.046;38.838;2023-05-17T13:13:37;100549.03;;;24.26;29.74
68456;BME280;55437;55.046;38.838;2023-05-17T13:16:03;100542.94;;;24.25;29.49
68456;BME280;55437;55.046;38.838;2023-05-17T13:18:29;100554.50;;;24.23;29.64